Time;durP1;ratioP1;P1;durP2;ratioP2;P2;SDS_P1;SDS_P2;PMS_P1;PMS_P2;Temp;Humidity;BMP_temperature;BMP_pressure;BME280_temperature;BME280_humidity;BME280_pressure;Samples;Min_cycle;Max_cycle;Signal;HPM_P1;HPM_P2
2023/06/06 00:01:40;;;;;;;2.22;1.30;;;;;;;14.39;64.26;102257.22;5094516;27;96588;-28
2023/06/06 00:04:06;;;;;;;4.15;1.42;;;;;;;14.30;64.22;102245.00;5094320;27;96719;-27
2023/06/06 00:06:33;;;;;;;2.03;0.98;;;;;;;14.26;64.40;102242.53;5093960;27;99039;-28
2023/06/06 00:08:59;;;;;;;2.10;1.35;;;;;;;14.19;64.73;102256.47;5094174;27;97897;-27
2023/06/06 00:11:25;;;;;;;2.97;1.58;;;;;;;14.13;65.37;102245.91;5074970;27;97007;-27
2023/06/06 00:13:50;;;;;;;2.60;1.33;;;;;;;14.16;65.34;102261.22;5094041;27;96830;-28
2023/06/06 00:16:16;;;;;;;2.40;1.10;;;;;;;14.17;64.61;102254.81;5094004;27;107896;-27
2023/06/06 00:18:45;;;;;;;2.20;1.10;;;;;;;14.23;64.42;102262.66;5093803;27;97807;-27
2023/06/06 00:21:12;;;;;;;3.55;1.58;;;;;;;14.17;64.60;102257.53;5075226;27;96692;-29
2023/06/06 00:23:37;;;;;;;2.83;1.60;;;;;;;14.17;64.42;102254.81;5075389;27;96924;-28
2023/06/06 00:26:03;;;;;;;3.50;1.45;;;;;;;14.21;65.10;102261.84;5075339;27;100792;-27
2023/06/06 00:28:28;;;;;;;5.90;1.75;;;;;;;14.16;65.25;102259.38;5094219;27;97652;-27
2023/06/06 00:30:53;;;;;;;3.90;1.42;;;;;;;14.15;65.29;102257.59;5093578;27;97650;-27
2023/06/06 00:33:19;;;;;;;2.35;1.42;;;;;;;14.07;64.95;102253.53;5093231;27;106646;-27
2023/06/06 00:35:44;;;;;;;3.63;1.30;;;;;;;14.07;64.69;102254.41;5074560;27;98227;-27
2023/06/06 00:38:10;;;;;;;2.30;1.40;;;;;;;14.06;65.47;102257.22;5093712;27;97817;-27
2023/06/06 00:40:35;;;;;;;3.42;1.77;;;;;;;14.06;65.40;102263.53;5093900;27;96495;-27
2023/06/06 00:43:00;;;;;;;5.25;1.67;;;;;;;14.03;65.06;102259.13;5093455;27;107908;-27
2023/06/06 00:45:26;;;;;;;4.82;1.52;;;;;;;14.01;65.53;102268.34;5093336;27;99245;-27
2023/06/06 00:47:51;;;;;;;6.57;1.40;;;;;;;13.92;66.25;102256.13;5093213;27;107687;-26
2023/06/06 00:50:18;;;;;;;4.80;1.45;;;;;;;13.89;65.69;102252.66;5093517;27;96545;-27
2023/06/06 00:52:46;;;;;;;2.63;1.40;;;;;;;13.84;65.12;102263.81;5093916;27;97051;-27
2023/06/06 00:55:13;;;;;;;3.13;1.55;;;;;;;13.77;66.36;102270.53;5074691;27;101299;-27
2023/06/06 00:57:39;;;;;;;2.20;1.50;;;;;;;13.77;66.93;102268.69;5074800;27;100966;-28
2023/06/06 01:00:06;;;;;;;3.22;1.30;;;;;;;13.75;66.82;102262.47;5092202;27;96650;-29
2023/06/06 01:02:37;;;;;;;1.55;1.15;;;;;;;13.77;67.20;102265.09;5074493;27;96913;-27
2023/06/06 01:05:06;;;;;;;3.87;1.60;;;;;;;13.73;66.85;102260.75;5074748;27;101343;-27
2023/06/06 01:07:32;;;;;;;2.40;1.20;;;;;;;13.72;67.20;102265.31;5074630;27;98859;-28
2023/06/06 01:09:58;;;;;;;2.70;1.60;;;;;;;13.72;66.07;102261.72;5074643;27;96594;-28
2023/06/06 01:12:47;;;;;;;3.55;1.40;;;;;;;13.76;66.95;102268.78;5093491;27;96710;-28
2023/06/06 01:15:18;;;;;;;3.05;1.45;;;;;;;13.75;67.02;102267.00;5074610;27;101125;-27
2023/06/06 01:17:46;;;;;;;4.30;1.67;;;;;;;13.70;66.53;102258.19;5093507;27;99417;-27
2023/06/06 01:20:12;;;;;;;3.13;1.13;;;;;;;13.72;67.05;102261.72;5093116;27;96509;-27
2023/06/06 01:22:38;;;;;;;2.45;1.13;;;;;;;13.63;67.14;102245.88;5074779;27;96857;-27
2023/06/06 01:25:06;;;;;;;2.92;1.70;;;;;;;13.50;67.24;102237.47;5074056;27;101387;-27
2023/06/06 01:27:33;;;;;;;2.22;1.38;;;;;;;13.56;67.03;102251.66;5092682;27;99591;-27
2023/06/06 01:29:59;;;;;;;2.80;1.15;;;;;;;13.53;67.39;102259.94;5092989;27;97941;-27
2023/06/06 01:32:28;;;;;;;3.17;1.42;;;;;;;13.57;67.84;102257.97;5074183;27;96904;-27
2023/06/06 01:35:12;;;;;;;3.50;1.63;;;;;;;13.53;68.01;102259.06;5092775;27;99200;-27
2023/06/06 01:37:48;;;;;;;4.35;1.17;;;;;;;13.49;68.30;102250.19;5092596;27;98838;-27
2023/06/06 01:40:17;;;;;;;1.65;1.00;;;;;;;13.45;68.10;102250.44;5074622;27;96595;-27
2023/06/06 01:42:48;;;;;;;3.30;1.65;;;;;;;13.52;68.21;102258.19;5093389;27;96774;-27
2023/06/06 01:45:21;;;;;;;4.30;1.73;;;;;;;13.48;68.23;102262.03;5074158;27;101407;-27
2023/06/06 01:47:47;;;;;;;7.07;1.80;;;;;;;13.48;67.18;102256.59;5092748;27;98819;-27
2023/06/06 01:50:13;;;;;;;3.63;1.60;;;;;;;13.50;67.13;102257.41;5073630;27;96906;-27
2023/06/06 01:52:39;;;;;;;4.82;1.80;;;;;;;13.51;67.35;102250.97;5074291;27;97008;-27
2023/06/06 01:55:05;;;;;;;4.80;1.10;;;;;;;13.44;67.07;102249.53;5074128;27;100908;-27
2023/06/06 01:57:31;;;;;;;1.88;1.38;;;;;;;13.44;67.86;102252.25;5073914;27;101018;-27
2023/06/06 01:59:57;;;;;;;3.42;1.50;;;;;;;13.40;67.19;102238.91;5092899;27;96532;-27
2023/06/06 02:02:22;;;;;;;2.95;1.60;;;;;;;13.45;67.34;102255.88;5092852;27;96770;-28
2023/06/06 02:04:48;;;;;;;2.95;1.70;;;;;;;13.35;68.18;102242.75;5092705;27;104229;-27
2023/06/06 02:07:15;;;;;;;2.50;1.45;;;;;;;13.34;68.15;102242.81;5092737;27;99098;-27
2023/06/06 02:09:41;;;;;;;4.85;1.52;;;;;;;13.41;68.85;102246.97;5073971;27;96528;-27
2023/06/06 02:12:07;;;;;;;3.28;1.67;;;;;;;13.42;68.40;102256.91;5094841;27;96808;-27
2023/06/06 02:14:33;;;;;;;3.00;1.25;;;;;;;13.35;68.70;102244.59;5076879;27;100698;-27
2023/06/06 02:16:58;;;;;;;2.38;1.52;;;;;;;13.32;68.29;102247.44;5095999;27;97845;-27
2023/06/06 02:19:23;;;;;;;2.92;1.70;;;;;;;13.26;68.37;102245.88;5096083;27;96479;-27
2023/06/06 02:21:50;;;;;;;2.33;1.40;;;;;;;13.22;68.02;102246.13;5095984;27;101402;-28
2023/06/06 02:24:15;;;;;;;4.05;1.77;;;;;;;13.17;69.04;102252.66;5077139;27;101719;-28
2023/06/06 02:26:42;;;;;;;2.63;1.40;;;;;;;13.20;68.58;102251.63;5095510;27;99002;-28
2023/06/06 02:29:07;;;;;;;2.25;1.33;;;;;;;13.15;68.49;102249.13;5096028;27;96481;-27
2023/06/06 02:31:33;;;;;;;3.55;1.77;;;;;;;13.16;69.21;102250.91;5096433;27;96783;-27
2023/06/06 02:33:58;;;;;;;3.20;1.75;;;;;;;13.14;68.71;102251.94;5095423;27;97908;-27
2023/06/06 02:36:25;;;;;;;2.58;1.52;;;;;;;13.11;68.74;102242.09;5095175;27;97739;-28
2023/06/06 02:38:50;;;;;;;3.65;1.65;;;;;;;13.10;69.21;102256.66;5076684;27;97397;-28
2023/06/06 02:41:16;;;;;;;3.20;1.58;;;;;;;13.11;68.61;102252.97;5095785;27;96649;-28
2023/06/06 02:43:42;;;;;;;3.58;1.58;;;;;;;13.04;68.99;102239.75;5095581;27;97944;-28
2023/06/06 02:46:07;;;;;;;3.10;1.38;;;;;;;13.05;68.88;102242.41;5095484;27;99052;-27
2023/06/06 02:48:33;;;;;;;5.05;1.85;;;;;;;13.04;68.76;102246.09;5095362;27;96652;-29
2023/06/06 02:50:59;;;;;;;2.28;1.42;;;;;;;13.02;68.92;102250.72;5095338;27;96833;-27
2023/06/06 02:53:24;;;;;;;3.03;1.67;;;;;;;12.95;69.48;102246.53;5095378;27;98027;-28
2023/06/06 02:55:50;;;;;;;2.50;1.50;;;;;;;12.91;68.67;102240.34;5095706;27;97856;-27
2023/06/06 02:58:28;;;;;;;4.07;1.58;;;;;;;12.94;70.00;102244.75;5095364;27;96520;-27
2023/06/06 03:00:57;;;;;;;3.33;1.25;;;;;;;12.92;69.68;102241.25;5095289;27;96476;-27
2023/06/06 03:03:24;;;;;;;2.38;1.45;;;;;;;12.83;69.52;102237.13;5075920;27;101223;-27
2023/06/06 03:05:51;;;;;;;3.95;1.35;;;;;;;12.90;69.80;102251.31;5076394;27;100738;-27
2023/06/06 03:08:21;;;;;;;1.55;1.25;;;;;;;12.83;69.67;102247.13;5076714;27;96792;-27
2023/06/06 03:10:47;;;;;;;2.95;1.50;;;;;;;12.90;70.73;102262.19;5076746;27;96819;-27
2023/06/06 03:13:13;;;;;;;2.15;1.25;;;;;;;12.91;69.95;102258.50;5076338;27;100903;-29
2023/06/06 03:15:44;;;;;;;2.88;1.38;;;;;;;12.88;69.70;102245.94;5076216;27;101261;-27
2023/06/06 03:18:20;;;;;;;6.72;1.45;;;;;;;12.91;69.15;102253.94;5095616;27;96622;-27
2023/06/06 03:20:51;;;;;;;2.80;1.35;;;;;;;12.89;70.13;102264.00;5095206;27;96677;-27
2023/06/06 03:23:17;;;;;;;2.67;1.45;;;;;;;12.90;70.31;102264.91;5094070;27;99454;-27
2023/06/06 03:25:44;;;;;;;3.92;1.70;;;;;;;12.92;70.59;102265.72;5094823;27;97324;-27
2023/06/06 03:28:10;;;;;;;2.30;1.17;;;;;;;12.89;69.76;102258.56;5094100;27;96616;-27
2023/06/06 03:30:36;;;;;;;4.72;2.00;;;;;;;12.90;70.06;102267.63;5076213;27;97069;-27
2023/06/06 03:33:03;;;;;;;3.28;1.45;;;;;;;12.81;69.57;102259.91;5076310;27;97390;-27
2023/06/06 03:35:31;;;;;;;3.80;1.25;;;;;;;12.83;70.20;102264.31;5094835;27;97976;-27
2023/06/06 03:37:57;;;;;;;2.90;1.65;;;;;;;12.80;69.69;102261.78;5072837;27;96851;-28
2023/06/06 03:40:23;;;;;;;4.75;1.95;;;;;;;12.84;70.21;102259.75;5072797;27;96973;-27
2023/06/06 03:42:49;;;;;;;3.15;1.50;;;;;;;12.82;70.10;102265.25;5072250;27;99466;-27
2023/06/06 03:45:15;;;;;;;3.65;1.38;;;;;;;12.81;69.55;102260.78;5072966;27;100820;-29
2023/06/06 03:47:41;;;;;;;2.33;1.35;;;;;;;12.85;70.90;102264.28;5074275;27;96561;-27
2023/06/06 03:50:06;;;;;;;2.92;1.75;;;;;;;12.80;70.79;102259.03;5074001;27;96793;-27
2023/06/06 03:52:32;;;;;;;4.28;1.75;;;;;;;12.78;70.28;102255.50;5073171;27;99143;-27
2023/06/06 03:54:57;;;;;;;3.33;1.58;;;;;;;12.82;71.28;102264.38;5073986;27;98250;-27
2023/06/06 03:57:23;;;;;;;2.95;1.42;;;;;;;12.83;70.79;102263.44;5073874;27;96630;-27
2023/06/06 03:59:49;;;;;;;3.72;1.55;;;;;;;12.82;71.29;102264.38;5073681;27;96824;-28
2023/06/06 04:02:16;;;;;;;3.60;1.88;;;;;;;12.82;70.65;102261.66;5072346;27;101410;-28
2023/06/06 04:04:42;;;;;;;3.72;1.48;;;;;;;12.78;70.54;102260.06;5072364;27;100719;-27
2023/06/06 04:07:07;;;;;;;6.05;1.75;;;;;;;12.80;71.18;102258.13;5073591;27;96496;-27
2023/06/06 04:09:32;;;;;;;2.63;1.40;;;;;;;12.71;70.79;102244.03;5074313;27;96760;-27
2023/06/06 04:11:58;;;;;;;2.85;1.42;;;;;;;12.84;70.48;102260.63;5073201;27;99366;-28
2023/06/06 04:14:23;;;;;;;2.72;1.42;;;;;;;12.79;70.28;102250.94;5073544;27;97942;-27
2023/06/06 04:16:48;;;;;;;3.35;1.88;;;;;;;12.82;70.89;102259.81;5072990;27;97885;-28
2023/06/06 04:19:14;;;;;;;2.97;1.80;;;;;;;12.83;71.52;102252.56;5073779;27;96798;-27
2023/06/06 04:21:39;;;;;;;3.85;1.23;;;;;;;12.83;71.23;102263.44;5073223;27;98039;-27
2023/06/06 04:24:04;;;;;;;4.88;1.85;;;;;;;12.83;70.80;102247.13;5073476;27;97763;-27
2023/06/06 04:26:31;;;;;;;6.35;1.63;;;;;;;12.80;71.14;102253.59;5073500;27;96576;-28
2023/06/06 04:28:59;;;;;;;2.90;1.65;;;;;;;12.72;70.68;102236.75;5073403;27;96514;-29
2023/06/06 04:31:26;;;;;;;2.47;1.58;;;;;;;12.81;71.28;102247.19;5071641;27;100937;-28
2023/06/06 04:33:54;;;;;;;3.63;1.70;;;;;;;12.85;71.15;102256.97;5071955;27;98923;-27
2023/06/06 04:36:21;;;;;;;2.72;1.60;;;;;;;12.88;70.43;102259.53;5073240;27;96787;-27
2023/06/06 04:38:49;;;;;;;3.30;1.80;;;;;;;12.86;71.10;102255.13;5075201;27;96831;-27
2023/06/06 04:41:15;;;;;;;2.63;1.30;;;;;;;12.91;70.16;102256.66;5074505;27;101069;-27
2023/06/06 04:43:42;;;;;;;3.90;2.00;;;;;;;12.91;69.93;102261.22;5075071;27;101595;-27
2023/06/06 04:46:08;;;;;;;2.95;1.58;;;;;;;12.86;70.47;102249.69;5075154;27;96666;-27
2023/06/06 04:48:33;;;;;;;5.07;2.03;;;;;;;12.94;70.97;102261.97;5093477;27;96885;-28
2023/06/06 04:50:58;;;;;;;3.70;1.90;;;;;;;12.90;70.94;102264.91;5093510;27;97455;-27
2023/06/06 04:53:24;;;;;;;2.80;1.40;;;;;;;12.89;70.60;102257.69;5093193;27;108475;-27
2023/06/06 04:55:49;;;;;;;4.40;1.75;;;;;;;12.94;70.80;102252.91;5093555;27;96662;-27
2023/06/06 04:58:16;;;;;;;7.28;1.88;;;;;;;12.95;71.28;102252.84;5093918;27;96810;-27
2023/06/06 05:00:47;;;;;;;2.83;1.90;;;;;;;13.01;70.67;102254.38;5074655;27;100833;-28
2023/06/06 05:03:18;;;;;;;5.50;1.47;;;;;;;13.10;70.45;102262.09;5074671;27;100754;-27
2023/06/06 05:05:46;;;;;;;2.53;1.50;;;;;;;13.04;70.29;102254.25;5074595;27;96990;-27
2023/06/06 05:08:12;;;;;;;2.75;1.63;;;;;;;13.11;70.01;102268.44;5074469;27;97005;-27
2023/06/06 05:10:39;;;;;;;6.75;1.65;;;;;;;13.05;70.29;102252.41;5093293;27;99518;-27
2023/06/06 05:13:05;;;;;;;5.32;1.60;;;;;;;13.08;70.83;102252.25;5074714;27;99384;-27
2023/06/06 05:15:30;;;;;;;7.05;1.40;;;;;;;13.10;71.25;102256.66;5093459;27;96461;-27
2023/06/06 05:17:58;;;;;;;2.00;1.40;;;;;;;13.05;70.58;102246.97;5093202;27;96931;-28
2023/06/06 05:20:24;;;;;;;2.33;1.40;;;;;;;13.13;70.39;102252.88;5092691;27;113089;-27
2023/06/06 05:22:50;;;;;;;4.25;1.88;;;;;;;13.19;70.83;102258.03;5093190;27;99398;-27
2023/06/06 05:25:15;;;;;;;3.83;1.92;;;;;;;13.25;71.01;102252.31;5074522;27;96603;-27
2023/06/06 05:27:41;;;;;;;4.18;2.00;;;;;;;13.23;71.06;102246.06;5093077;27;96840;-28
2023/06/06 05:30:07;;;;;;;5.47;2.03;;;;;;;13.20;71.04;102251.63;5092591;27;103857;-27
2023/06/06 05:32:32;;;;;;;3.17;1.52;;;;;;;13.28;70.63;102248.56;5092838;27;99272;-27
2023/06/06 05:35:00;;;;;;;2.55;1.15;;;;;;;13.28;71.07;102237.69;5092647;27;96649;-27
2023/06/06 05:37:25;;;;;;;3.72;1.80;;;;;;;13.40;70.69;102256.13;5071757;27;96776;-30
2023/06/06 05:39:51;;;;;;;4.63;2.08;;;;;;;13.40;70.56;102253.38;5091303;27;98123;-27
2023/06/06 05:42:16;;;;;;;2.45;1.48;;;;;;;13.43;70.96;102258.66;5092908;27;101848;-27
2023/06/06 05:44:43;;;;;;;2.33;1.35;;;;;;;13.46;71.15;102253.06;5092985;27;96557;-27
2023/06/06 05:47:08;;;;;;;5.35;1.67;;;;;;;13.54;70.89;102266.31;5076847;27;96915;-28
2023/06/06 05:49:34;;;;;;;5.25;1.80;;;;;;;13.56;70.62;102261.63;5096768;27;98623;-28
2023/06/06 05:52:01;;;;;;;3.35;1.90;;;;;;;13.62;71.16;102261.31;5095874;27;97824;-28
2023/06/06 05:54:27;;;;;;;2.00;1.17;;;;;;;13.62;70.82;102264.06;5095672;27;96539;-27
2023/06/06 05:56:56;;;;;;;4.55;1.77;;;;;;;13.68;72.01;102258.31;5095794;27;97052;-27
2023/06/06 05:59:21;;;;;;;5.30;1.38;;;;;;;13.79;70.93;102268.63;5077488;27;100572;-28
2023/06/06 06:01:49;;;;;;;2.70;1.60;;;;;;;13.77;71.01;102254.19;5096374;27;97800;-28
2023/06/06 06:04:16;;;;;;;6.05;1.48;;;;;;;13.87;69.82;102260.03;5077664;27;96752;-27
2023/06/06 06:06:46;;;;;;;4.05;1.33;;;;;;;13.87;70.47;102252.78;5095980;27;97465;-27
2023/06/06 06:09:11;;;;;;;2.53;1.50;;;;;;;13.94;71.50;102259.66;5077350;27;100931;-28
2023/06/06 06:11:37;;;;;;;5.47;1.77;;;;;;;13.96;69.99;102262.28;5096215;27;98895;-27
2023/06/06 06:14:02;;;;;;;4.25;1.92;;;;;;;13.96;70.76;102245.94;5096320;27;96568;-27
2023/06/06 06:16:27;;;;;;;3.03;1.88;;;;;;;14.07;71.00;102264.44;5095028;27;96806;-29
2023/06/06 06:18:53;;;;;;;5.85;1.85;;;;;;;14.16;70.67;102272.13;5092850;27;99626;-31
2023/06/06 06:21:19;;;;;;;4.72;1.95;;;;;;;14.12;71.25;102267.81;5092937;27;107396;-29
2023/06/06 06:23:45;;;;;;;3.30;1.23;;;;;;;14.12;70.43;102263.22;5074625;27;96744;-32
2023/06/06 06:26:10;;;;;;;5.97;1.50;;;;;;;14.15;71.10;102267.63;5093433;27;96826;-32
2023/06/06 06:28:36;;;;;;;3.55;1.73;;;;;;;14.19;70.27;102270.09;5093081;27;99214;-27
2023/06/06 06:31:01;;;;;;;5.72;1.52;;;;;;;14.22;70.72;102259.03;5093606;27;97931;-27
2023/06/06 06:33:27;;;;;;;4.93;1.83;;;;;;;14.36;69.74;102261.00;5095872;27;96763;-29
2023/06/06 06:35:52;;;;;;;3.83;1.88;;;;;;;14.41;70.10;102266.22;5094828;27;96900;-28
2023/06/06 06:38:18;;;;;;;3.08;1.40;;;;;;;14.50;69.42;102273.00;5095588;27;97956;-27
2023/06/06 06:40:43;;;;;;;3.55;1.60;;;;;;;14.51;69.61;102277.47;5095982;27;97284;-27
2023/06/06 06:43:08;;;;;;;5.85;1.60;;;;;;;14.57;68.96;102271.75;5095194;27;96666;-28
2023/06/06 06:45:34;;;;;;;5.60;1.77;;;;;;;14.63;69.61;102274.09;5094390;27;97837;-27
2023/06/06 06:48:01;;;;;;;3.65;1.85;;;;;;;14.67;69.60;102267.53;5095289;27;99372;-27
2023/06/06 06:50:27;;;;;;;4.05;1.52;;;;;;;14.76;69.86;102272.47;5075403;27;101244;-28
2023/06/06 06:52:53;;;;;;;8.23;2.13;;;;;;;14.79;68.96;102268.69;5076772;27;97337;-28
2023/06/06 06:55:19;;;;;;;4.13;1.73;;;;;;;14.81;69.45;102262.16;5095492;27;96850;-28
2023/06/06 06:57:44;;;;;;;4.05;2.05;;;;;;;14.93;68.80;102271.50;5094135;27;98084;-27
2023/06/06 07:00:15;;;;;;;3.65;1.60;;;;;;;15.06;69.01;102271.66;5095752;27;97856;-27
2023/06/06 07:02:42;;;;;;;4.13;1.80;;;;;;;15.16;68.47;102272.91;5094549;27;97803;-28
2023/06/06 07:05:09;;;;;;;4.55;1.88;;;;;;;15.13;68.75;102267.63;5076294;27;96845;-27
2023/06/06 07:07:34;;;;;;;5.28;1.77;;;;;;;15.11;68.89;102271.41;5056480;27;101382;-28
2023/06/06 07:10:00;;;;;;;4.13;1.80;;;;;;;15.15;68.68;102265.69;5074305;27;99267;-27
2023/06/06 07:12:25;;;;;;;3.35;1.67;;;;;;;15.43;68.31;102259.47;5074382;27;97831;-27
2023/06/06 07:14:50;;;;;;;2.90;1.80;;;;;;;15.83;68.08;102273.50;5074678;27;96883;-27
2023/06/06 07:17:16;;;;;;;5.38;2.08;;;;;;;16.06;67.30;102279.41;5074143;27;97460;-27
2023/06/06 07:19:44;;;;;;;3.70;1.80;;;;;;;16.24;66.05;102278.28;5079873;27;97829;-27
2023/06/06 07:22:10;;;;;;;2.47;1.63;;;;;;;16.35;65.78;102267.53;5095161;27;96592;-27
2023/06/06 07:24:35;;;;;;;4.47;1.60;;;;;;;16.46;65.58;102264.09;5095525;27;96883;-27
2023/06/06 07:27:02;;;;;;;3.50;2.38;;;;;;;16.49;65.74;102269.41;5094798;27;98892;-28
2023/06/06 07:29:29;;;;;;;3.35;1.88;;;;;;;16.53;65.30;102267.34;5075292;27;101706;-27
2023/06/06 07:31:55;;;;;;;3.13;1.77;;;;;;;16.75;65.75;102258.63;5075408;27;97157;-27
2023/06/06 07:34:21;;;;;;;5.85;1.75;;;;;;;17.02;64.38;102252.34;5093593;27;96819;-27
2023/06/06 07:36:46;;;;;;;3.30;1.90;;;;;;;16.93;64.92;102260.19;5074606;27;100815;-27
2023/06/06 07:39:11;;;;;;;3.08;1.80;;;;;;;17.04;64.77;102266.81;5094339;27;109995;-27
2023/06/06 07:41:39;;;;;;;8.20;2.17;;;;;;;17.17;64.81;102251.34;5094911;27;96492;-27
2023/06/06 07:44:04;;;;;;;4.60;2.30;;;;;;;17.39;63.60;102251.63;5075988;27;96904;-27
2023/06/06 07:46:29;;;;;;;3.72;1.77;;;;;;;17.55;63.20;102254.19;5094598;27;97872;-27
2023/06/06 07:48:55;;;;;;;6.70;1.77;;;;;;;17.58;63.31;102253.97;5094844;27;98329;-27
2023/06/06 07:51:21;;;;;;;3.40;1.65;;;;;;;17.73;62.78;102257.56;5075705;27;100122;-27
2023/06/06 07:53:46;;;;;;;4.38;1.88;;;;;;;17.87;62.75;102250.25;5094777;27;96750;-28
2023/06/06 07:56:16;;;;;;;3.50;1.63;;;;;;;17.99;62.62;102243.91;5075248;27;100777;-27
2023/06/06 07:58:52;;;;;;;2.47;1.52;;;;;;;18.00;62.30;102243.78;5075744;27;101191;-27
2023/06/06 08:01:20;;;;;;;4.95;1.65;;;;;;;18.04;62.03;102244.44;5075844;27;96670;-27
2023/06/06 08:03:49;;;;;;;4.28;2.20;;;;;;;18.11;62.04;102245.75;5094606;27;96814;-27
2023/06/06 08:06:18;;;;;;;2.97;1.63;;;;;;;18.14;61.41;102242.81;5094117;27;99888;-27
2023/06/06 08:08:46;;;;;;;3.80;2.08;;;;;;;18.11;61.43;102240.28;5075131;27;101356;-27
2023/06/06 08:11:12;;;;;;;5.32;1.92;;;;;;;18.24;61.30;102238.41;5075560;27;96569;-27
2023/06/06 08:13:37;;;;;;;4.38;1.65;;;;;;;18.26;61.14;102232.84;5076366;27;96791;-27
2023/06/06 08:16:02;;;;;;;3.47;1.83;;;;;;;18.42;60.26;102247.22;5093613;27;117515;-27
2023/06/06 08:18:28;;;;;;;4.13;1.60;;;;;;;18.55;59.92;102243.56;5094188;27;97825;-27
2023/06/06 08:20:54;;;;;;;4.47;2.13;;;;;;;18.52;60.14;102236.44;5092204;27;96937;-27
2023/06/06 08:23:20;;;;;;;6.10;1.50;;;;;;;18.72;60.13;102245.94;5093914;27;96952;-27
2023/06/06 08:25:45;;;;;;;6.28;2.20;;;;;;;18.84;59.13;102244.19;5093321;27;97934;-28
2023/06/06 08:28:10;;;;;;;5.38;1.52;;;;;;;18.91;59.21;102244.63;5093328;27;99152;-27
2023/06/06 08:30:36;;;;;;;5.90;2.00;;;;;;;19.05;58.89;102249.94;5093927;27;96524;-27
2023/06/06 08:33:01;;;;;;;5.20;1.70;;;;;;;19.20;59.25;102237.78;5093816;27;96808;-27
2023/06/06 08:35:26;;;;;;;6.10;2.08;;;;;;;19.34;58.41;102244.97;5093953;27;97983;-28
2023/06/06 08:37:52;;;;;;;4.22;1.73;;;;;;;19.30;58.04;102241.56;5093844;27;102140;-27
2023/06/06 08:40:17;;;;;;;5.32;1.98;;;;;;;19.40;58.27;102235.38;5093968;27;96501;-27
2023/06/06 08:42:45;;;;;;;3.28;1.67;;;;;;;19.50;57.79;102248.31;5093694;27;96890;-27
2023/06/06 08:45:11;;;;;;;3.13;1.85;;;;;;;19.52;57.30;102235.34;5074286;27;101922;-27
2023/06/06 08:47:37;;;;;;;4.28;2.08;;;;;;;19.65;57.12;102246.25;5093642;27;96561;-27
2023/06/06 08:50:07;;;;;;;4.20;1.55;;;;;;;19.69;56.95;102234.03;5075145;27;96711;-27
2023/06/06 08:52:39;;;;;;;4.43;1.95;;;;;;;19.67;56.59;102240.63;5093374;27;96915;-27
2023/06/06 08:55:04;;;;;;;;;;;;;;;19.73;56.47;102243.81;5075477;27;100818;-27
2023/06/06 08:57:31;;;;;;;2.97;1.55;;;;;;;19.82;56.46;102236.69;5093537;27;96862;-29
2023/06/06 08:59:56;;;;;;;4.07;1.90;;;;;;;20.02;56.21;102239.75;5075083;27;96626;-27
2023/06/06 09:02:22;;;;;;;4.43;2.10;;;;;;;20.03;56.04;102236.88;5093725;27;96895;-27
2023/06/06 09:04:48;;;;;;;5.45;1.90;;;;;;;20.24;55.78;102236.19;5074714;27;100882;-28
2023/06/06 09:07:15;;;;;;;4.13;1.70;;;;;;;20.31;54.99;102234.69;5093251;27;99157;-26
2023/06/06 09:09:42;;;;;;;4.43;1.98;;;;;;;20.39;55.51;102231.31;5074249;27;97246;-27
2023/06/06 09:12:08;;;;;;;5.50;2.10;;;;;;;20.53;54.56;102231.06;5074330;27;97110;-27
2023/06/06 09:14:34;;;;;;;5.00;1.83;;;;;;;20.55;54.96;102226.28;5074612;27;99520;-27
2023/06/06 09:16:59;;;;;;;5.55;2.03;;;;;;;20.63;54.67;102231.19;5093018;27;99086;-27
2023/06/06 09:19:25;;;;;;;4.80;1.88;;;;;;;20.70;54.61;102219.53;5093519;27;96754;-27
2023/06/06 09:21:51;;;;;;;6.75;2.58;;;;;;;20.78;54.27;102228.06;5076135;27;96850;-27
2023/06/06 09:24:17;;;;;;;4.00;1.80;;;;;;;20.85;54.24;102227.53;5096916;27;97944;-27
2023/06/06 09:26:42;;;;;;;5.35;1.95;;;;;;;20.83;54.31;102233.16;5078307;27;100397;-27
2023/06/06 09:29:11;;;;;;;7.32;2.50;;;;;;;20.87;53.53;102236.56;5097047;27;96739;-27
2023/06/06 09:31:40;;;;;;;5.55;1.80;;;;;;;21.02;53.63;102234.38;5096895;27;96949;-27
2023/06/06 09:34:08;;;;;;;3.38;1.98;;;;;;;21.02;53.16;102213.22;5077349;27;100825;-26
2023/06/06 09:36:33;;;;;;;3.80;1.73;;;;;;;21.28;53.13;102227.53;5077431;27;100724;-27
2023/06/06 09:39:13;;;;;;;7.45;1.92;;;;;;;21.31;52.64;102223.66;5096547;27;96483;-27
2023/06/06 09:41:45;;;;;;;4.78;2.22;;;;;;;21.39;52.33;102219.28;5097130;27;96813;-27
2023/06/06 09:44:21;;;;;;;3.67;1.65;;;;;;;21.44;52.59;102218.88;5077885;27;101018;-26
2023/06/06 09:46:57;;;;;;;5.65;1.95;;;;;;;21.66;52.83;102225.28;5096409;27;97318;-26
2023/06/06 09:49:22;;;;;;;4.97;2.20;;;;;;;21.79;51.70;102213.06;5077918;27;96779;-27
2023/06/06 09:51:51;;;;;;;4.70;2.13;;;;;;;21.78;52.06;102204.91;5096739;27;96746;-29
2023/06/06 09:54:17;;;;;;;6.13;2.10;;;;;;;21.88;51.55;102214.16;5077701;27;100844;-27
2023/06/06 09:56:46;;;;;;;5.45;1.90;;;;;;;21.94;50.77;102221.00;5096544;27;97842;-27
2023/06/06 09:59:13;;;;;;;4.03;2.10;;;;;;;22.00;51.41;102220.44;5077171;27;97074;-27
2023/06/06 10:01:42;;;;;;;8.25;2.20;;;;;;;21.94;50.41;102224.63;5077844;27;96880;-27
2023/06/06 10:04:08;;;;;;;4.47;2.00;;;;;;;21.95;50.69;102223.63;5095876;27;99507;-27
2023/06/06 10:06:34;;;;;;;4.65;2.28;;;;;;;22.03;50.39;102223.81;5077556;27;101502;-27
2023/06/06 10:09:04;;;;;;;4.68;2.10;;;;;;;22.01;49.95;102225.84;5096463;27;96622;-29
2023/06/06 10:11:30;;;;;;;5.75;2.50;;;;;;;22.14;50.30;102227.50;5077523;27;96826;-27
2023/06/06 10:13:56;;;;;;;5.85;2.00;;;;;;;22.17;49.44;102222.59;5077358;27;101330;-27
2023/06/06 10:16:21;;;;;;;2.47;1.60;;;;;;;21.95;49.83;102211.69;5096252;27;99135;-27
2023/06/06 10:18:48;;;;;;;7.47;1.92;;;;;;;22.22;50.51;102224.97;5095942;27;96735;-27
2023/06/06 10:21:17;;;;;;;8.45;2.22;;;;;;;22.31;50.01;102223.25;5096007;27;96808;-27
2023/06/06 10:23:43;;;;;;;4.95;2.15;;;;;;;22.46;48.92;102217.25;5076728;27;101064;-26
2023/06/06 10:26:17;;;;;;;3.67;2.17;;;;;;;22.58;48.92;102220.78;5077209;27;100730;-27
2023/06/06 10:28:57;;;;;;;5.20;2.03;;;;;;;22.62;48.88;102215.84;5077401;27;96591;-28
2023/06/06 10:31:31;;;;;;;5.25;2.40;;;;;;;22.54;47.78;102207.38;5077341;27;96831;-26
2023/06/06 10:34:00;;;;;;;4.07;2.13;;;;;;;22.76;48.74;102207.16;5076664;27;101529;-28
2023/06/06 10:36:38;;;;;;;7.28;2.65;;;;;;;22.92;48.17;102212.16;5076312;27;100851;-27
2023/06/06 10:39:19;;;;;;;5.28;1.92;;;;;;;22.83;49.02;102191.75;5077288;27;96583;-27
2023/06/06 10:42:05;;;;;;;4.20;1.70;;;;;;;23.09;48.08;102211.47;5077460;27;96796;-28
2023/06/06 10:44:45;;;;;;;7.50;2.15;;;;;;;23.22;47.30;102202.06;5095685;27;98164;-27
2023/06/06 10:47:32;;;;;;;6.13;1.80;;;;;;;23.30;48.00;102194.78;5095706;27;97402;-28
2023/06/06 10:50:13;;;;;;;3.58;1.98;;;;;;;23.29;48.24;102203.25;5094762;27;96617;-27
2023/06/06 10:52:45;;;;;;;4.78;2.35;;;;;;;23.28;47.67;102199.56;5076804;27;96908;-27
2023/06/06 10:55:39;;;;;;;3.95;2.10;;;;;;;23.42;47.86;102202.94;5076710;27;101264;-26
2023/06/06 10:58:05;;;;;;;5.13;1.92;;;;;;;23.49;47.63;102198.56;5073274;27;100912;-29
2023/06/06 11:00:35;;;;;;;7.75;2.30;;;;;;;23.49;47.29;102204.97;5076699;27;96710;-27
2023/06/06 11:03:32;;;;;;;4.45;2.28;;;;;;;23.61;47.56;102204.81;5076798;27;96920;-27
2023/06/06 11:06:00;;;;;;;4.28;1.95;;;;;;;23.64;46.61;102210.06;5076628;27;100829;-28
2023/06/06 11:08:40;;;;;;;3.70;2.00;;;;;;;23.59;46.66;102212.41;5095400;27;99503;-27
2023/06/06 11:11:28;;;;;;;4.18;2.03;;;;;;;23.60;47.08;102203.97;5076505;27;97261;-28
2023/06/06 11:14:04;;;;;;;4.20;1.88;;;;;;;23.73;47.04;102203.66;5095016;27;96693;-27
2023/06/06 11:17:00;;;;;;;4.32;2.08;;;;;;;23.67;45.80;102207.88;5094636;27;99588;-27
2023/06/06 11:19:31;;;;;;;4.32;2.28;;;;;;;23.74;46.25;102197.13;5095074;27;99329;-27
2023/06/06 11:21:58;;;;;;;6.70;2.17;;;;;;;23.75;46.83;102198.88;5076370;27;96812;-27
2023/06/06 11:24:31;;;;;;;3.45;2.15;;;;;;;23.77;46.61;102207.91;5094866;27;96872;-27
2023/06/06 11:26:57;;;;;;;4.40;2.08;;;;;;;23.90;46.72;102202.91;5076360;27;100885;-27